createdAt,value
2022-08-07T00:00:03.113Z,2.40
2022-08-07T00:02:44.200Z,2.63
2022-08-07T00:05:12.410Z,2.58
2022-08-07T00:07:41.532Z,2.70
2022-08-07T00:10:26.108Z,2.80
2022-08-07T00:13:00.503Z,3.05
2022-08-07T00:15:38.015Z,3.10
2022-08-07T00:18:19.888Z,2.72
2022-08-07T00:20:52.111Z,3.05
2022-08-07T00:23:21.122Z,2.72
2022-08-07T00:25:58.861Z,2.50
2022-08-07T00:28:33.790Z,2.63
2022-08-07T00:31:05.755Z,3.10
2022-08-07T00:33:34.715Z,2.67
2022-08-07T00:36:03.240Z,2.95
2022-08-07T00:41:27.834Z,2.95
2022-08-07T00:44:01.016Z,3.42
2022-08-07T00:46:33.217Z,3.95
2022-08-07T00:49:02.982Z,4.70
2022-08-07T00:51:57.538Z,3.78
2022-08-07T00:54:19.916Z,4.13
2022-08-07T00:56:49.591Z,3.80
2022-08-07T00:59:20.160Z,3.80
2022-08-07T01:02:02.765Z,3.20
2022-08-07T01:04:37.452Z,4.00
2022-08-07T01:07:11.047Z,3.63
2022-08-07T01:10:04.122Z,3.40
2022-08-07T01:12:29.758Z,3.65
2022-08-07T01:17:30.210Z,3.42
2022-08-07T01:20:02.523Z,3.70
2022-08-07T01:22:32.384Z,3.75
2022-08-07T01:25:00.566Z,4.35
2022-08-07T01:27:32.390Z,4.05
2022-08-07T01:30:02.255Z,3.20
2022-08-07T01:32:30.813Z,3.45
2022-08-07T01:35:00.752Z,3.65
2022-08-07T01:37:29.545Z,3.95
2022-08-07T01:40:04.464Z,3.90
2022-08-07T01:42:57.523Z,3.83
2022-08-07T01:45:36.938Z,3.60
2022-08-07T01:48:19.169Z,3.40
2022-08-07T01:50:53.451Z,3.10
2022-08-07T01:54:08.924Z,3.25
2022-08-07T01:56:13.865Z,3.45
2022-08-07T01:58:50.563Z,3.20
2022-08-07T02:01:59.425Z,3.40
2022-08-07T02:04:14.314Z,3.42
2022-08-07T02:06:48.276Z,4.00
2022-08-07T02:09:51.870Z,3.20
2022-08-07T02:12:19.381Z,3.10
2022-08-07T02:14:57.790Z,3.75
2022-08-07T02:17:40.955Z,3.40
2022-08-07T02:20:23.608Z,3.05
2022-08-07T02:22:57.459Z,2.80
2022-08-07T02:25:47.239Z,3.60
2022-08-07T02:28:24.808Z,3.30
2022-08-07T02:30:56.090Z,3.13
2022-08-07T02:33:42.184Z,2.55
2022-08-07T02:36:29.456Z,3.00
2022-08-07T02:39:16.097Z,2.95
2022-08-07T02:41:47.246Z,2.60
2022-08-07T02:44:19.510Z,3.38
2022-08-07T02:46:52.633Z,3.15
2022-08-07T02:49:56.227Z,3.20
2022-08-07T02:52:13.005Z,2.97
2022-08-07T02:54:43.004Z,3.40
2022-08-07T02:57:14.882Z,3.25
2022-08-07T02:59:54.977Z,3.30
2022-08-07T03:02:31.536Z,3.40
2022-08-07T03:05:04.893Z,3.30
2022-08-07T03:08:05.085Z,3.00
2022-08-07T03:10:23.620Z,3.10
2022-08-07T03:12:53.619Z,3.33
2022-08-07T03:15:30.230Z,3.15
2022-08-07T03:18:11.609Z,3.05
2022-08-07T03:20:45.551Z,3.38
2022-08-07T03:23:15.186Z,3.65
2022-08-07T03:25:58.093Z,3.55
2022-08-07T03:28:37.541Z,3.00
2022-08-07T03:31:19.038Z,2.95
2022-08-07T03:33:56.802Z,2.85
2022-08-07T03:36:28.668Z,2.83
2022-08-07T03:41:42.382Z,2.50
2022-08-07T03:44:12.448Z,2.60
2022-08-07T03:47:11.444Z,2.15
2022-08-07T03:49:31.503Z,2.55
2022-08-07T03:52:01.234Z,2.40
2022-08-07T03:54:36.461Z,2.60
2022-08-07T03:58:32.979Z,2.80
2022-08-07T04:00:06.806Z,2.45
2022-08-07T04:02:47.298Z,2.67
2022-08-07T04:05:24.094Z,2.42
2022-08-07T04:08:16.098Z,2.70
2022-08-07T04:10:54.831Z,2.90
2022-08-07T04:14:14.052Z,3.03
2022-08-07T04:16:31.273Z,2.40
2022-08-07T04:19:12.722Z,2.88
2022-08-07T04:21:59.317Z,2.85
2022-08-07T04:24:34.116Z,2.65
2022-08-07T04:27:15.229Z,2.78
2022-08-07T04:30:02.054Z,2.72
2022-08-07T04:32:58.204Z,2.60
2022-08-07T04:35:28.548Z,2.90
2022-08-07T04:38:07.770Z,2.90
2022-08-07T04:40:51.455Z,2.70
2022-08-07T04:44:12.742Z,3.03
2022-08-07T04:46:25.816Z,3.60
2022-08-07T04:48:58.290Z,2.75
2022-08-07T04:51:36.309Z,3.03
2022-08-07T04:54:08.898Z,2.47
2022-08-07T04:58:15.883Z,2.55
2022-08-07T05:00:10.783Z,2.63
2022-08-07T05:02:27.638Z,2.80
2022-08-07T05:05:52.631Z,2.47
2022-08-07T05:08:59.628Z,2.40
2022-08-07T05:11:24.493Z,2.42
2022-08-07T05:14:52.508Z,2.67
2022-08-07T05:17:01.371Z,2.53
2022-08-07T05:19:45.153Z,2.70
2022-08-07T05:22:26.510Z,2.67
2022-08-07T05:24:57.211Z,2.95
2022-08-07T05:30:29.975Z,2.78
2022-08-07T05:33:02.581Z,3.08
2022-08-07T05:35:41.760Z,2.65
2022-08-07T05:38:11.311Z,3.30
2022-08-07T05:40:42.791Z,3.60
2022-08-07T05:43:49.727Z,3.38
2022-08-07T05:46:08.644Z,3.22
2022-08-07T05:48:36.806Z,2.83
2022-08-07T05:51:24.791Z,2.85
2022-08-07T05:54:09.649Z,2.88
2022-08-07T05:56:41.244Z,3.70
2022-08-07T05:59:12.411Z,3.00
2022-08-07T06:01:43.595Z,3.00
2022-08-07T06:04:17.491Z,3.25
2022-08-07T06:06:46.380Z,2.75
2022-08-07T06:09:17.643Z,3.15
2022-08-07T06:11:48.702Z,3.00
2022-08-07T06:14:21.026Z,2.42
2022-08-07T06:16:59.310Z,2.80
2022-08-07T06:19:57.675Z,2.70
2022-08-07T06:22:24.075Z,2.90
2022-08-07T06:25:04.142Z,2.65
2022-08-07T06:28:00.208Z,2.95
2022-08-07T06:30:24.324Z,2.65
2022-08-07T06:35:45.301Z,2.58
2022-08-07T06:38:20.123Z,2.70
2022-08-07T06:40:54.296Z,2.80
2022-08-07T06:43:27.500Z,3.00
2022-08-07T06:46:13.761Z,3.10
2022-08-07T06:48:44.662Z,3.30
2022-08-07T06:51:31.231Z,2.60
2022-08-07T06:55:28.865Z,3.17
2022-08-07T06:56:55.103Z,3.10
2022-08-07T07:00:14.348Z,2.63
2022-08-07T07:02:48.581Z,2.83
2022-08-07T07:05:14.178Z,2.70
2022-08-07T07:08:07.217Z,2.85
2022-08-07T07:10:47.519Z,2.70
2022-08-07T07:13:55.765Z,2.75
2022-08-07T07:16:27.405Z,2.45
2022-08-07T07:19:54.754Z,2.35
2022-08-07T07:22:12.257Z,3.30
2022-08-07T07:24:42.963Z,2.80
2022-08-07T07:27:12.249Z,2.97
2022-08-07T07:29:56.597Z,2.78
2022-08-07T07:32:32.851Z,2.97
2022-08-07T07:35:03.805Z,2.53
2022-08-07T07:37:49.557Z,2.33
2022-08-07T07:40:21.826Z,2.83
2022-08-07T07:42:56.017Z,2.70
2022-08-07T07:46:40.233Z,2.22
2022-08-07T07:48:24.329Z,2.38
2022-08-07T07:51:07.739Z,2.90
2022-08-07T07:53:42.993Z,2.20
2022-08-07T07:56:20.268Z,2.28
2022-08-07T07:59:01.698Z,2.50
2022-08-07T08:02:02.622Z,2.83
2022-08-07T08:04:20.319Z,2.40
2022-08-07T08:06:54.411Z,2.72
2022-08-07T08:09:25.041Z,2.30
2022-08-07T08:12:03.060Z,2.33
2022-08-07T08:14:34.355Z,2.47
2022-08-07T08:17:55.842Z,2.55
2022-08-07T08:20:18.733Z,2.60
2022-08-07T08:23:02.483Z,2.20
2022-08-07T08:25:50.776Z,2.47
2022-08-07T08:28:24.085Z,2.05
2022-08-07T08:31:05.957Z,2.28
2022-08-07T08:33:34.569Z,2.08
2022-08-07T08:36:03.257Z,2.60
2022-08-07T08:38:42.698Z,1.90
2022-08-07T08:41:21.362Z,2.10
2022-08-07T08:43:58.603Z,2.30
2022-08-07T08:46:27.083Z,2.35
2022-08-07T08:49:17.849Z,1.83
2022-08-07T08:52:19.195Z,1.98
2022-08-07T08:54:55.690Z,2.22
2022-08-07T08:57:42.235Z,1.98
2022-08-07T09:00:13.780Z,2.10
2022-08-07T09:02:52.411Z,2.20
2022-08-07T09:05:26.438Z,1.88
2022-08-07T09:08:09.493Z,3.05
2022-08-07T09:10:44.263Z,2.20
2022-08-07T09:13:14.890Z,2.50
2022-08-07T09:16:21.617Z,2.03
2022-08-07T09:18:53.113Z,2.08
2022-08-07T09:22:22.440Z,2.00
2022-08-07T09:24:55.445Z,2.08
2022-08-07T09:27:27.401Z,2.15
2022-08-07T09:30:03.322Z,1.95
2022-08-07T09:32:56.166Z,2.00
2022-08-07T09:36:04.588Z,2.03
2022-08-07T09:38:23.188Z,2.10
2022-08-07T09:41:03.419Z,1.80
2022-08-07T09:44:06.487Z,2.00
2022-08-07T09:47:55.512Z,2.15
2022-08-07T09:50:01.083Z,2.22
2022-08-07T09:52:41.471Z,2.10
2022-08-07T09:55:17.422Z,1.75
2022-08-07T09:58:09.881Z,2.03
2022-08-07T10:00:51.961Z,1.80
2022-08-07T10:04:06.191Z,2.40
2022-08-07T10:06:26.085Z,2.13
2022-08-07T10:09:01.076Z,1.75
2022-08-07T10:12:02.692Z,1.60
2022-08-07T10:14:54.333Z,2.05
2022-08-07T10:17:33.701Z,3.85
2022-08-07T10:20:21.956Z,5.45
2022-08-07T10:23:12.613Z,5.87
2022-08-07T10:25:44.561Z,4.45
2022-08-07T10:28:30.487Z,4.32
2022-08-07T10:31:17.752Z,3.00
2022-08-07T10:34:15.543Z,6.00
2022-08-07T10:36:58.425Z,6.03
2022-08-07T10:40:03.462Z,3.22
2022-08-07T10:42:39.325Z,2.30
2022-08-07T10:45:10.745Z,2.72
2022-08-07T10:47:51.546Z,3.28
2022-08-07T10:50:25.876Z,2.42
2022-08-07T10:53:13.022Z,1.85
2022-08-07T10:55:53.689Z,2.17
2022-08-07T10:58:33.093Z,2.03
2022-08-07T11:01:05.323Z,2.40
2022-08-07T11:03:52.513Z,1.85
2022-08-07T11:06:44.672Z,2.25
2022-08-07T11:10:07.077Z,1.92
2022-08-07T11:12:14.610Z,2.38
2022-08-07T11:15:01.322Z,2.67
2022-08-07T11:17:45.345Z,2.53
2022-08-07T11:20:24.701Z,2.70
2022-08-07T11:23:07.299Z,2.67
2022-08-07T11:25:47.886Z,2.30
2022-08-07T11:28:20.636Z,2.30
2022-08-07T11:30:48.462Z,2.15
2022-08-07T11:33:48.775Z,1.90
2022-08-07T11:36:30.931Z,2.40
2022-08-07T11:39:19.987Z,2.60
2022-08-07T11:42:04.058Z,2.10
2022-08-07T11:44:52.405Z,2.30
2022-08-07T11:47:56.430Z,2.20
2022-08-07T11:50:44.513Z,2.55
2022-08-07T11:54:01.003Z,3.85
2022-08-07T11:56:52.340Z,2.20
2022-08-07T12:00:10.619Z,2.20
2022-08-07T12:02:30.216Z,2.40
2022-08-07T12:05:01.634Z,2.40
2022-08-07T12:07:39.262Z,2.80
2022-08-07T12:10:16.444Z,2.63
2022-08-07T12:12:59.744Z,2.55
2022-08-07T12:15:35.817Z,2.20
2022-08-07T12:18:29.900Z,2.67
2022-08-07T12:22:36.124Z,2.60
2022-08-07T12:25:02.050Z,2.50
2022-08-07T12:28:08.567Z,2.28
2022-08-07T12:30:24.745Z,2.50
2022-08-07T12:33:09.313Z,2.15
2022-08-07T12:35:57.775Z,2.72
2022-08-07T12:38:39.334Z,2.53
2022-08-07T12:41:12.162Z,2.38
2022-08-07T12:44:02.349Z,2.35
2022-08-07T12:46:51.782Z,2.42
2022-08-07T12:49:39.553Z,2.25
2022-08-07T12:52:17.108Z,2.30
2022-08-07T12:54:55.089Z,2.50
2022-08-07T12:57:26.712Z,2.47
2022-08-07T13:00:12.834Z,2.53
2022-08-07T13:03:26.925Z,2.40
2022-08-07T13:06:21.581Z,2.47
2022-08-07T13:08:50.682Z,2.40
2022-08-07T13:12:03.512Z,2.47
2022-08-07T13:14:30.510Z,3.00
2022-08-07T13:17:13.829Z,2.78
2022-08-07T13:19:57.146Z,2.20
2022-08-07T13:22:37.011Z,2.30
2022-08-07T13:25:08.851Z,2.63
2022-08-07T13:28:11.704Z,2.30
2022-08-07T13:30:40.387Z,2.28
2022-08-07T13:34:14.503Z,2.30
2022-08-07T13:36:39.914Z,2.13
2022-08-07T13:39:12.797Z,2.35
2022-08-07T13:41:56.593Z,2.58
2022-08-07T13:44:34.596Z,2.33
2022-08-07T13:47:09.543Z,2.65
2022-08-07T13:50:35.898Z,2.50
2022-08-07T13:52:39.537Z,2.88
2022-08-07T13:55:11.161Z,2.60
2022-08-07T13:58:02.220Z,2.28
2022-08-07T14:00:50.605Z,2.45
2022-08-07T14:03:29.971Z,2.72
2022-08-07T14:06:12.627Z,2.08
2022-08-07T14:08:45.131Z,2.35
2022-08-07T14:11:19.159Z,2.72
2022-08-07T14:13:55.104Z,2.55
2022-08-07T14:16:32.331Z,2.10
2022-08-07T14:19:02.669Z,2.35
2022-08-07T14:22:03.903Z,2.20
2022-08-07T14:24:42.007Z,2.17
2022-08-07T14:28:09.407Z,2.40
2022-08-07T14:30:09.640Z,2.47
2022-08-07T14:32:42.904Z,2.20
2022-08-07T14:35:12.169Z,2.60
2022-08-07T14:37:40.308Z,2.50
2022-08-07T14:40:17.751Z,2.67
2022-08-07T14:43:55.277Z,2.13
2022-08-07T14:45:54.860Z,2.20
2022-08-07T14:48:30.226Z,2.30
2022-08-07T14:51:15.799Z,2.33
2022-08-07T14:54:05.423Z,2.67
2022-08-07T14:56:39.809Z,2.42
2022-08-07T14:59:14.107Z,4.83
2022-08-07T15:01:58.822Z,2.75
2022-08-07T15:04:28.912Z,2.28
2022-08-07T15:06:57.798Z,2.60
2022-08-07T15:12:26.002Z,2.70
2022-08-07T15:15:07.568Z,2.65
2022-08-07T15:17:55.425Z,2.70
2022-08-07T15:20:32.600Z,2.65
2022-08-07T15:23:20.394Z,2.63
2022-08-07T15:25:52.662Z,11.10
2022-08-07T15:28:34.638Z,3.60
2022-08-07T15:31:10.254Z,2.58
2022-08-07T15:33:42.593Z,2.38
2022-08-07T15:36:11.021Z,2.55
2022-08-07T15:38:51.866Z,2.85
2022-08-07T15:42:43.316Z,2.70
2022-08-07T15:44:18.826Z,2.42
2022-08-07T15:46:52.702Z,5.18
2022-08-07T15:50:06.006Z,2.70
2022-08-07T15:52:17.023Z,2.67
2022-08-07T15:54:49.102Z,2.60
2022-08-07T15:57:40.211Z,2.35
2022-08-07T16:00:09.343Z,3.00
2022-08-07T16:02:59.711Z,2.63
2022-08-07T16:05:31.242Z,2.17
2022-08-07T16:08:32.273Z,2.38
2022-08-07T16:11:00.939Z,2.10
2022-08-07T16:13:59.248Z,2.50
2022-08-07T16:16:48.445Z,2.33
2022-08-07T16:19:58.730Z,2.17
2022-08-07T16:22:33.634Z,2.20
2022-08-07T16:25:23.369Z,2.20
2022-08-07T16:28:12.761Z,2.40
2022-08-07T16:30:57.431Z,2.25
2022-08-07T16:34:02.196Z,2.88
2022-08-07T16:36:20.297Z,2.28
2022-08-07T16:39:07.032Z,2.10
2022-08-07T16:42:07.266Z,2.03
2022-08-07T16:45:14.852Z,2.20
2022-08-07T16:47:51.432Z,2.60
2022-08-07T16:50:48.274Z,2.90
2022-08-07T16:54:02.289Z,2.28
2022-08-07T16:56:37.276Z,2.10
2022-08-07T16:59:23.553Z,1.90
2022-08-07T17:02:10.500Z,2.58
2022-08-07T17:04:51.133Z,2.42
2022-08-07T17:07:55.013Z,2.25
2022-08-07T17:10:30.411Z,2.38
2022-08-07T17:13:19.598Z,2.57
2022-08-07T17:16:06.069Z,2.40
2022-08-07T17:18:58.930Z,2.63
2022-08-07T17:21:51.888Z,2.10
2022-08-07T17:24:38.720Z,2.35
2022-08-07T17:27:20.004Z,2.08
2022-08-07T17:30:14.526Z,2.17
2022-08-07T17:33:00.573Z,2.50
2022-08-07T17:35:54.689Z,2.53
2022-08-07T17:38:44.398Z,2.13
2022-08-07T17:42:03.913Z,2.30
2022-08-07T17:44:13.604Z,2.58
2022-08-07T17:46:52.540Z,2.70
2022-08-07T17:49:44.832Z,2.80
2022-08-07T17:52:21.562Z,2.45
2022-08-07T17:55:55.579Z,2.97
2022-08-07T17:58:09.953Z,3.35
2022-08-07T18:00:58.331Z,4.63
2022-08-07T18:03:54.021Z,5.03
2022-08-07T18:06:38.175Z,5.63
2022-08-07T18:09:08.565Z,7.10
2022-08-07T18:12:16.538Z,8.05
2022-08-07T18:14:37.608Z,4.03
2022-08-07T18:18:45.957Z,3.10
2022-08-07T18:21:02.499Z,3.05
2022-08-07T18:23:42.525Z,2.60
2022-08-07T18:26:01.374Z,2.80
2022-08-07T18:28:57.855Z,2.80
2022-08-07T18:31:49.850Z,3.15
2022-08-07T18:35:00.317Z,2.70
2022-08-07T18:38:55.823Z,2.90
2022-08-07T18:40:42.702Z,2.80
2022-08-07T18:43:18.392Z,3.20
2022-08-07T18:46:25.119Z,3.15
2022-08-07T18:50:30.131Z,3.08
2022-08-07T18:52:33.742Z,2.80
2022-08-07T18:55:43.212Z,3.15
2022-08-07T18:58:20.146Z,2.47
2022-08-07T19:01:04.769Z,3.22
2022-08-07T19:03:38.850Z,3.15
2022-08-07T19:06:06.798Z,3.30
2022-08-07T19:08:39.092Z,2.95
2022-08-07T19:11:36.603Z,3.30
2022-08-07T19:14:11.552Z,3.00
2022-08-07T19:17:07.766Z,3.10
2022-08-07T19:19:46.023Z,3.40
2022-08-07T19:22:18.960Z,3.80
2022-08-07T19:25:06.905Z,3.53
2022-08-07T19:28:29.327Z,3.65
2022-08-07T19:31:00.621Z,3.63
2022-08-07T19:33:16.061Z,3.55
2022-08-07T19:35:52.441Z,3.63
2022-08-07T19:38:20.612Z,3.50
2022-08-07T19:40:51.512Z,3.92
2022-08-07T19:43:45.151Z,3.28
2022-08-07T19:46:10.664Z,4.07
2022-08-07T19:48:42.968Z,3.78
2022-08-07T19:51:19.972Z,3.40
2022-08-07T19:54:32.104Z,3.70
2022-08-07T19:57:51.733Z,4.47
2022-08-07T19:59:40.725Z,4.40
2022-08-07T20:02:19.194Z,4.63
2022-08-07T20:04:50.278Z,4.97
2022-08-07T20:07:47.455Z,4.60
2022-08-07T20:10:37.126Z,3.97
2022-08-07T20:13:02.179Z,4.93
2022-08-07T20:15:36.922Z,4.45
2022-08-07T20:18:14.676Z,4.60
2022-08-07T20:20:46.527Z,4.23
2022-08-07T20:23:32.966Z,4.20
2022-08-07T20:26:09.941Z,4.85
2022-08-07T20:28:40.533Z,4.93
2022-08-07T20:31:11.131Z,4.18
2022-08-07T20:33:51.786Z,4.57
2022-08-07T20:36:26.540Z,4.43
2022-08-07T20:39:00.234Z,4.55
2022-08-07T20:41:38.533Z,4.20
2022-08-07T20:44:12.500Z,4.38
2022-08-07T20:46:43.690Z,3.85
2022-08-07T20:50:00.583Z,3.83
2022-08-07T20:52:02.356Z,4.15
2022-08-07T20:54:34.393Z,3.85
2022-08-07T20:57:04.112Z,4.05
2022-08-07T21:00:04.440Z,4.40
2022-08-07T21:02:54.108Z,4.13
2022-08-07T21:05:43.062Z,4.28
2022-08-07T21:08:16.413Z,3.65
2022-08-07T21:10:50.098Z,4.40
2022-08-07T21:13:24.456Z,4.45
2022-08-07T21:16:00.558Z,3.85
2022-08-07T21:18:33.807Z,3.47
2022-08-07T21:21:02.341Z,3.88
2022-08-07T21:23:50.082Z,4.53
2022-08-07T21:26:22.490Z,4.32
2022-08-07T21:31:49.971Z,4.00
2022-08-07T21:34:21.030Z,3.25
2022-08-07T21:36:56.918Z,3.60
2022-08-07T21:39:47.236Z,3.35
2022-08-07T21:42:42.327Z,3.40
2022-08-07T21:46:05.186Z,3.40
2022-08-07T21:48:27.728Z,3.53
2022-08-07T21:51:19.465Z,3.47
2022-08-07T21:53:53.047Z,3.78
2022-08-07T21:56:47.969Z,3.58
2022-08-07T21:59:16.790Z,3.78
2022-08-07T22:02:10.747Z,3.60
2022-08-07T22:04:51.119Z,3.53
2022-08-07T22:07:22.865Z,3.70
2022-08-07T22:10:02.498Z,3.25
2022-08-07T22:12:43.251Z,3.80
2022-08-07T22:16:43.246Z,4.18
2022-08-07T22:18:11.679Z,4.10
2022-08-07T22:20:44.978Z,3.65
2022-08-07T22:23:16.117Z,3.50
2022-08-07T22:26:02.193Z,3.50
2022-08-07T22:28:33.633Z,3.63
2022-08-07T22:31:05.293Z,3.50
2022-08-07T22:33:56.728Z,4.07
2022-08-07T22:36:27.998Z,4.07
2022-08-07T22:39:18.879Z,3.55
2022-08-07T22:42:03.045Z,3.50
2022-08-07T22:44:58.090Z,3.97
2022-08-07T22:47:45.354Z,4.10
2022-08-07T22:50:21.001Z,3.63
2022-08-07T22:53:15.558Z,3.60
2022-08-07T22:55:52.707Z,3.88
2022-08-07T22:58:39.509Z,4.40
2022-08-07T23:01:21.901Z,3.97
2022-08-07T23:03:58.418Z,3.83
2022-08-07T23:06:51.432Z,3.53
2022-08-07T23:10:03.488Z,3.80
2022-08-07T23:12:34.562Z,3.90
2022-08-07T23:15:12.288Z,3.67
2022-08-07T23:18:02.756Z,3.72
2022-08-07T23:20:51.300Z,3.40
2022-08-07T23:24:06.252Z,3.22
2022-08-07T23:26:23.479Z,3.30
2022-08-07T23:29:01.958Z,2.92
2022-08-07T23:34:22.935Z,2.60
2022-08-07T23:35:08.015Z,3.15
2022-08-07T23:38:01.601Z,2.75
2022-08-07T23:40:31.356Z,2.83
2022-08-07T23:43:17.606Z,2.70
2022-08-07T23:46:02.806Z,2.80
2022-08-07T23:48:54.122Z,2.40
2022-08-07T23:53:12.059Z,2.65
2022-08-07T23:54:44.150Z,3.03
2022-08-07T23:57:09.416Z,3.10
